sensor_id;sensor_type;location;lat;lon;timestamp;pressure;altitude;pressure_sealevel;temperature;humidity
46464;BME280;32161;48.148;-1.554;2023-07-13T00:00:24;101228.38;;;17.62;78.24
46464;BME280;32161;48.148;-1.554;2023-07-13T00:02:51;101233.88;;;17.62;78.92
46464;BME280;32161;48.148;-1.554;2023-07-13T00:05:19;101230.84;;;17.58;78.36
46464;BME280;32161;48.148;-1.554;2023-07-13T00:07:49;101233.59;;;17.58;78.09
46464;BME280;32161;48.148;-1.554;2023-07-13T00:10:18;101231.13;;;17.56;78.24
46464;BME280;32161;48.148;-1.554;2023-07-13T00:12:45;101232.47;;;17.54;78.05
46464;BME280;32161;48.148;-1.554;2023-07-13T00:15:16;101226.94;;;17.49;78.26
46464;BME280;32161;48.148;-1.554;2023-07-13T00:17:48;101228.53;;;17.45;78.47
46464;BME280;32161;48.148;-1.554;2023-07-13T00:20:16;101234.56;;;17.42;78.09
46464;BME280;32161;48.148;-1.554;2023-07-13T00:22:44;101238.41;;;17.41;78.42
46464;BME280;32161;48.148;-1.554;2023-07-13T00:25:13;101233.19;;;17.39;78.23
46464;BME280;32161;48.148;-1.554;2023-07-13T00:27:42;101237.84;;;17.39;78.53
46464;BME280;32161;48.148;-1.554;2023-07-13T00:30:10;101237.84;;;17.39;79.05
46464;BME280;32161;48.148;-1.554;2023-07-13T00:32:38;101238.94;;;17.38;79.15
46464;BME280;32161;48.148;-1.554;2023-07-13T00:35:07;101234.78;;;17.35;79.93
46464;BME280;32161;48.148;-1.554;2023-07-13T00:37:35;101242.22;;;17.35;79.53
46464;BME280;32161;48.148;-1.554;2023-07-13T00:40:05;101233.16;;;17.34;79.37
46464;BME280;32161;48.148;-1.554;2023-07-13T00:42:34;101227.66;;;17.34;79.53
46464;BME280;32161;48.148;-1.554;2023-07-13T00:48:15;101229.00;;;17.31;78.80
46464;BME280;32161;48.148;-1.554;2023-07-13T00:50:46;101232.03;;;17.30;79.04
46464;BME280;32161;48.148;-1.554;2023-07-13T00:53:14;101228.19;;;17.31;78.77
46464;BME280;32161;48.148;-1.554;2023-07-13T00:55:42;101222.38;;;17.27;79.05
46464;BME280;32161;48.148;-1.554;2023-07-13T00:58:12;101220.72;;;17.26;78.54
46464;BME280;32161;48.148;-1.554;2023-07-13T01:00:39;101227.28;;;17.25;77.69
46464;BME280;32161;48.148;-1.554;2023-07-13T01:03:07;101226.75;;;17.23;78.92
46464;BME280;32161;48.148;-1.554;2023-07-13T01:05:36;101229.97;;;17.15;79.57
46464;BME280;32161;48.148;-1.554;2023-07-13T01:08:05;101227.72;;;17.07;79.71
46464;BME280;32161;48.148;-1.554;2023-07-13T01:10:33;101223.78;;;16.98;79.77
46464;BME280;32161;48.148;-1.554;2023-07-13T01:13:06;101226.19;;;16.89;80.24
46464;BME280;32161;48.148;-1.554;2023-07-13T01:15:41;101216.50;;;16.81;80.65
46464;BME280;32161;48.148;-1.554;2023-07-13T01:18:11;101228.50;;;16.75;81.27
46464;BME280;32161;48.148;-1.554;2023-07-13T01:20:40;101232.81;;;16.71;81.71
46464;BME280;32161;48.148;-1.554;2023-07-13T01:23:11;101239.41;;;16.70;81.14
46464;BME280;32161;48.148;-1.554;2023-07-13T01:25:39;101233.09;;;16.70;80.27
46464;BME280;32161;48.148;-1.554;2023-07-13T01:28:08;101242.44;;;16.69;80.44
46464;BME280;32161;48.148;-1.554;2023-07-13T01:30:37;101241.59;;;16.68;80.62
46464;BME280;32161;48.148;-1.554;2023-07-13T01:33:06;101241.59;;;16.68;80.78
46464;BME280;32161;48.148;-1.554;2023-07-13T01:35:33;101236.94;;;16.69;81.46
46464;BME280;32161;48.148;-1.554;2023-07-13T01:38:02;101238.78;;;16.63;82.21
46464;BME280;32161;48.148;-1.554;2023-07-13T01:40:31;101235.50;;;16.61;83.06
46464;BME280;32161;48.148;-1.554;2023-07-13T01:42:59;101240.16;;;16.60;83.30
46464;BME280;32161;48.148;-1.554;2023-07-13T01:45:27;101251.13;;;16.60;83.43
46464;BME280;32161;48.148;-1.554;2023-07-13T01:47:55;101246.47;;;16.61;83.63
46464;BME280;32161;48.148;-1.554;2023-07-13T01:50:24;101239.88;;;16.62;83.53
46464;BME280;32161;48.148;-1.554;2023-07-13T01:52:52;101239.88;;;16.62;83.36
46464;BME280;32161;48.148;-1.554;2023-07-13T01:55:20;101241.81;;;16.62;83.45
46464;BME280;32161;48.148;-1.554;2023-07-13T01:57:49;101250.84;;;16.62;83.55
46464;BME280;32161;48.148;-1.554;2023-07-13T02:00:18;101248.13;;;16.62;83.68
46464;BME280;32161;48.148;-1.554;2023-07-13T02:02:45;101250.84;;;16.62;83.43
46464;BME280;32161;48.148;-1.554;2023-07-13T02:05:14;101245.09;;;16.64;83.36
46464;BME280;32161;48.148;-1.554;2023-07-13T02:07:42;101239.88;;;16.62;82.94
46464;BME280;32161;48.148;-1.554;2023-07-13T02:10:10;101239.88;;;16.62;83.36
46464;BME280;32161;48.148;-1.554;2023-07-13T02:12:38;101240.97;;;16.61;83.33
46464;BME280;32161;48.148;-1.554;2023-07-13T02:15:09;101241.53;;;16.63;83.54
46464;BME280;32161;48.148;-1.554;2023-07-13T02:17:37;101235.50;;;16.61;83.65
46464;BME280;32161;48.148;-1.554;2023-07-13T02:20:06;101245.63;;;16.60;84.08
46464;BME280;32161;48.148;-1.554;2023-07-13T02:22:35;101244.78;;;16.60;84.18
46464;BME280;32161;48.148;-1.554;2023-07-13T02:25:03;101236.31;;;16.62;84.37
46464;BME280;32161;48.148;-1.554;2023-07-13T02:27:32;101232.97;;;16.59;84.41
46464;BME280;32161;48.148;-1.554;2023-07-13T02:29:59;101236.56;;;16.60;84.43
46464;BME280;32161;48.148;-1.554;2023-07-13T02:32:29;101237.84;;;16.52;84.79
46464;BME280;32161;48.148;-1.554;2023-07-13T02:34:56;101239.84;;;16.57;85.32
46464;BME280;32161;48.148;-1.554;2023-07-13T02:37:24;101237.13;;;16.62;85.16
46464;BME280;32161;48.148;-1.554;2023-07-13T02:39:51;101234.44;;;16.67;85.09
46464;BME280;32161;48.148;-1.554;2023-07-13T02:42:19;101227.94;;;16.73;85.15
46464;BME280;32161;48.148;-1.554;2023-07-13T02:44:46;101227.44;;;16.76;85.25
46464;BME280;32161;48.148;-1.554;2023-07-13T02:47:15;101231.56;;;16.79;85.19
46464;BME280;32161;48.148;-1.554;2023-07-13T02:49:44;101234.06;;;16.80;85.23
46464;BME280;32161;48.148;-1.554;2023-07-13T02:52:12;101229.41;;;16.81;85.56
46464;BME280;32161;48.148;-1.554;2023-07-13T02:54:39;101237.88;;;16.79;85.78
46464;BME280;32161;48.148;-1.554;2023-07-13T02:57:07;101235.41;;;16.78;86.06
46464;BME280;32161;48.148;-1.554;2023-07-13T02:59:35;101232.66;;;16.78;86.45
46464;BME280;32161;48.148;-1.554;2023-07-13T03:02:03;101232.38;;;16.79;86.44
46464;BME280;32161;48.148;-1.554;2023-07-13T03:04:31;101229.41;;;16.81;86.63
46464;BME280;32161;48.148;-1.554;2023-07-13T03:06:59;101220.88;;;16.82;86.37
46464;BME280;32161;48.148;-1.554;2023-07-13T03:09:27;101226.97;;;16.84;86.14
46464;BME280;32161;48.148;-1.554;2023-07-13T03:11:55;101230.53;;;16.85;86.01
46464;BME280;32161;48.148;-1.554;2023-07-13T03:14:23;101214.06;;;16.85;85.96
46464;BME280;32161;48.148;-1.554;2023-07-13T03:16:51;101217.06;;;16.83;85.93
46464;BME280;32161;48.148;-1.554;2023-07-13T03:19:19;101228.63;;;16.86;86.20
46464;BME280;32161;48.148;-1.554;2023-07-13T03:21:47;101225.34;;;16.89;86.04
46464;BME280;32161;48.148;-1.554;2023-07-13T03:24:16;101219.84;;;16.89;86.22
46464;BME280;32161;48.148;-1.554;2023-07-13T03:26:43;101218.75;;;16.90;86.37
46464;BME280;32161;48.148;-1.554;2023-07-13T03:29:11;101227.50;;;16.87;86.68
46464;BME280;32161;48.148;-1.554;2023-07-13T03:31:39;101227.81;;;16.90;86.61
46464;BME280;32161;48.148;-1.554;2023-07-13T03:34:07;101224.84;;;16.92;86.47
46464;BME280;32161;48.148;-1.554;2023-07-13T03:36:34;101228.66;;;16.91;86.54
46464;BME280;32161;48.148;-1.554;2023-07-13T03:39:03;101234.72;;;16.93;86.53
46464;BME280;32161;48.148;-1.554;2023-07-13T03:41:35;101233.38;;;16.95;86.88
46464;BME280;32161;48.148;-1.554;2023-07-13T03:44:04;101230.63;;;16.95;86.87
46464;BME280;32161;48.148;-1.554;2023-07-13T03:46:31;101236.38;;;16.94;87.04
46464;BME280;32161;48.148;-1.554;2023-07-13T03:49:01;101237.78;;;16.96;87.16
46464;BME280;32161;48.148;-1.554;2023-07-13T03:51:28;101231.19;;;16.97;87.40
46464;BME280;32161;48.148;-1.554;2023-07-13T03:53:57;101230.09;;;16.98;87.38
46464;BME280;32161;48.148;-1.554;2023-07-13T03:56:24;101236.72;;;17.02;87.48
46464;BME280;32161;48.148;-1.554;2023-07-13T03:58:54;101234.50;;;16.99;87.66
46464;BME280;32161;48.148;-1.554;2023-07-13T04:01:24;101243.06;;;17.03;87.75
46464;BME280;32161;48.148;-1.554;2023-07-13T04:03:52;101252.38;;;17.02;87.56
46464;BME280;32161;48.148;-1.554;2023-07-13T04:06:22;101252.91;;;16.99;87.97
46464;BME280;32161;48.148;-1.554;2023-07-13T04:08:56;101255.66;;;16.99;88.22
46464;BME280;32161;48.148;-1.554;2023-07-13T04:11:27;101262.28;;;17.03;88.57
46464;BME280;32161;48.148;-1.554;2023-07-13T04:13:56;101267.81;;;17.08;88.29
46464;BME280;32161;48.148;-1.554;2023-07-13T04:16:24;101252.16;;;17.08;88.18
46464;BME280;32161;48.148;-1.554;2023-07-13T04:18:52;101255.19;;;17.07;88.33
46464;BME280;32161;48.148;-1.554;2023-07-13T04:21:21;101266.16;;;17.07;88.42
46464;BME280;32161;48.148;-1.554;2023-07-13T04:23:49;101270.56;;;17.08;88.60
46464;BME280;32161;48.148;-1.554;2023-07-13T04:26:17;101264.81;;;17.09;88.83
46464;BME280;32161;48.148;-1.554;2023-07-13T04:28:47;101262.63;;;17.12;88.60
46464;BME280;32161;48.148;-1.554;2023-07-13T04:31:16;101262.13;;;17.15;88.81
46464;BME280;32161;48.148;-1.554;2023-07-13T04:33:44;101265.41;;;17.17;88.64
46464;BME280;32161;48.148;-1.554;2023-07-13T04:36:11;101271.22;;;17.20;88.26
46464;BME280;32161;48.148;-1.554;2023-07-13T04:38:39;101265.22;;;17.23;88.57
46464;BME280;32161;48.148;-1.554;2023-07-13T04:41:08;101274.84;;;17.26;88.73
46464;BME280;32161;48.148;-1.554;2023-07-13T04:43:36;101278.44;;;17.26;88.24
46464;BME280;32161;48.148;-1.554;2023-07-13T04:46:06;101270.13;;;17.21;88.40
46464;BME280;32161;48.148;-1.554;2023-07-13T04:48:35;101273.97;;;17.20;88.44
46464;BME280;32161;48.148;-1.554;2023-07-13T04:51:03;101272.56;;;17.18;88.86
46464;BME280;32161;48.148;-1.554;2023-07-13T04:53:32;101273.97;;;17.20;88.96
46464;BME280;32161;48.148;-1.554;2023-07-13T04:56:00;101272.31;;;17.19;89.08
46464;BME280;32161;48.148;-1.554;2023-07-13T04:58:28;101274.25;;;17.19;88.89
46464;BME280;32161;48.148;-1.554;2023-07-13T05:01:00;101276.72;;;17.20;88.77
46464;BME280;32161;48.148;-1.554;2023-07-13T05:03:28;101276.72;;;17.20;88.92
46464;BME280;32161;48.148;-1.554;2023-07-13T05:05:59;101283.34;;;17.24;89.03
46464;BME280;32161;48.148;-1.554;2023-07-13T05:08:28;101285.00;;;17.25;88.64
46464;BME280;32161;48.148;-1.554;2023-07-13T05:10:56;101297.34;;;17.23;89.19
46464;BME280;32161;48.148;-1.554;2023-07-13T05:13:23;101288.84;;;17.24;89.62
46464;BME280;32161;48.148;-1.554;2023-07-13T05:15:57;101291.63;;;17.29;89.50
46464;BME280;32161;48.148;-1.554;2023-07-13T05:18:25;101296.88;;;17.31;89.62
46464;BME280;32161;48.148;-1.554;2023-07-13T05:21:01;101296.06;;;17.36;89.51
46464;BME280;32161;48.148;-1.554;2023-07-13T05:23:29;101296.06;;;17.36;89.02
46464;BME280;32161;48.148;-1.554;2023-07-13T05:25:57;101295.25;;;17.35;89.27
46464;BME280;32161;48.148;-1.554;2023-07-13T05:28:25;101298.28;;;17.33;89.38
46464;BME280;32161;48.148;-1.554;2023-07-13T05:30:53;101308.72;;;17.37;89.62
46464;BME280;32161;48.148;-1.554;2023-07-13T05:33:21;101304.91;;;17.38;89.71
46464;BME280;32161;48.148;-1.554;2023-07-13T05:35:49;101308.50;;;17.43;90.01
46464;BME280;32161;48.148;-1.554;2023-07-13T05:38:18;101309.91;;;17.46;89.89
46464;BME280;32161;48.148;-1.554;2023-07-13T05:40:46;101307.72;;;17.48;89.45
46464;BME280;32161;48.148;-1.554;2023-07-13T05:43:14;101314.34;;;17.52;89.44
46464;BME280;32161;48.148;-1.554;2023-07-13T05:45:42;101324.00;;;17.54;89.47
46464;BME280;32161;48.148;-1.554;2023-07-13T05:48:10;101312.72;;;17.56;89.37
46464;BME280;32161;48.148;-1.554;2023-07-13T05:50:38;101322.09;;;17.60;89.61
46464;BME280;32161;48.148;-1.554;2023-07-13T05:53:05;101323.25;;;17.64;89.75
46464;BME280;32161;48.148;-1.554;2023-07-13T05:55:34;101322.72;;;17.67;89.44
46464;BME280;32161;48.148;-1.554;2023-07-13T05:58:02;101323.28;;;17.69;89.42
46464;BME280;32161;48.148;-1.554;2023-07-13T06:00:29;101327.69;;;17.70;89.07
46464;BME280;32161;48.148;-1.554;2023-07-13T06:02:57;101334.59;;;17.73;89.25
46464;BME280;32161;48.148;-1.554;2023-07-13T06:05:24;101337.06;;;17.74;89.20
46464;BME280;32161;48.148;-1.554;2023-07-13T06:07:53;101339.03;;;17.79;89.42
46464;BME280;32161;48.148;-1.554;2023-07-13T06:10:20;101341.03;;;17.84;89.47
46464;BME280;32161;48.148;-1.554;2023-07-13T06:12:49;101343.28;;;17.92;89.26
46464;BME280;32161;48.148;-1.554;2023-07-13T06:15:17;101344.41;;;17.96;88.45
46464;BME280;32161;48.148;-1.554;2023-07-13T06:17:45;101346.63;;;17.99;88.29
46464;BME280;32161;48.148;-1.554;2023-07-13T06:20:13;101354.34;;;18.02;88.73
46464;BME280;32161;48.148;-1.554;2023-07-13T06:22:40;101349.66;;;18.02;88.95
46464;BME280;32161;48.148;-1.554;2023-07-13T06:25:09;101350.22;;;18.04;88.88
46464;BME280;32161;48.148;-1.554;2023-07-13T06:27:36;101351.06;;;18.05;88.97
46464;BME280;32161;48.148;-1.554;2023-07-13T06:30:07;101355.75;;;18.10;88.38
46464;BME280;32161;48.148;-1.554;2023-07-13T06:32:35;101359.91;;;18.12;88.87
46464;BME280;32161;48.148;-1.554;2023-07-13T06:35:03;101354.72;;;18.16;89.01
46464;BME280;32161;48.148;-1.554;2023-07-13T06:37:31;101367.66;;;18.20;88.55
46464;BME280;32161;48.148;-1.554;2023-07-13T06:39:59;101365.22;;;18.24;88.34
46464;BME280;32161;48.148;-1.554;2023-07-13T06:42:27;101370.72;;;18.29;88.39
46464;BME280;32161;48.148;-1.554;2023-07-13T06:44:54;101359.19;;;18.32;88.30
46464;BME280;32161;48.148;-1.554;2023-07-13T06:47:23;101368.56;;;18.36;88.48
46464;BME280;32161;48.148;-1.554;2023-07-13T06:49:51;101370.81;;;18.39;88.20
46464;BME280;32161;48.148;-1.554;2023-07-13T06:52:18;101369.44;;;18.42;88.48
46464;BME280;32161;48.148;-1.554;2023-07-13T06:54:46;101367.00;;;18.45;88.26
46464;BME280;32161;48.148;-1.554;2023-07-13T06:57:14;101378.56;;;18.47;88.06
46464;BME280;32161;48.148;-1.554;2023-07-13T06:59:41;101371.41;;;18.51;88.46
46464;BME280;32161;48.148;-1.554;2023-07-13T07:02:10;101380.53;;;18.57;88.08
46464;BME280;32161;48.148;-1.554;2023-07-13T07:04:39;101377.22;;;18.60;87.50
46464;BME280;32161;48.148;-1.554;2023-07-13T07:07:06;101373.94;;;18.63;87.29
46464;BME280;32161;48.148;-1.554;2023-07-13T07:09:34;101374.50;;;18.65;87.31
46464;BME280;32161;48.148;-1.554;2023-07-13T07:12:02;101375.63;;;18.69;86.59
46464;BME280;32161;48.148;-1.554;2023-07-13T07:14:30;101389.97;;;18.71;86.60
46464;BME280;32161;48.148;-1.554;2023-07-13T07:16:58;101384.50;;;18.76;86.08
46464;BME280;32161;48.148;-1.554;2023-07-13T07:19:27;101387.84;;;18.84;85.56
46464;BME280;32161;48.148;-1.554;2023-07-13T07:21:56;101388.13;;;18.87;85.26
46464;BME280;32161;48.148;-1.554;2023-07-13T07:24:23;101393.91;;;18.91;85.80
46464;BME280;32161;48.148;-1.554;2023-07-13T07:26:51;101394.47;;;18.93;85.82
46464;BME280;32161;48.148;-1.554;2023-07-13T07:29:18;101396.94;;;18.94;85.83
46464;BME280;32161;48.148;-1.554;2023-07-13T07:31:46;101403.91;;;19.07;84.65
46464;BME280;32161;48.148;-1.554;2023-07-13T07:34:14;101405.53;;;19.08;85.25
46464;BME280;32161;48.148;-1.554;2023-07-13T07:36:41;101408.31;;;19.08;85.20
46464;BME280;32161;48.148;-1.554;2023-07-13T07:39:10;101407.22;;;19.14;84.99
46464;BME280;32161;48.148;-1.554;2023-07-13T07:41:38;101413.00;;;19.18;84.63
46464;BME280;32161;48.148;-1.554;2023-07-13T07:44:05;101409.44;;;19.22;84.49
46464;BME280;32161;48.148;-1.554;2023-07-13T07:46:35;101420.19;;;19.29;83.64
46464;BME280;32161;48.148;-1.554;2023-07-13T07:49:03;101411.38;;;19.27;83.61
46464;BME280;32161;48.148;-1.554;2023-07-13T07:51:31;101419.94;;;19.31;83.61
46464;BME280;32161;48.148;-1.554;2023-07-13T07:53:58;101409.19;;;19.39;82.54
46464;BME280;32161;48.148;-1.554;2023-07-13T07:56:27;101423.28;;;19.43;83.04
46464;BME280;32161;48.148;-1.554;2023-07-13T07:58:55;101422.72;;;19.51;83.61
46464;BME280;32161;48.148;-1.554;2023-07-13T08:01:23;101407.88;;;19.62;82.85
46464;BME280;32161;48.148;-1.554;2023-07-13T08:03:50;101413.97;;;19.69;82.01
46464;BME280;32161;48.148;-1.554;2023-07-13T08:06:18;101421.41;;;19.79;82.22
46464;BME280;32161;48.148;-1.554;2023-07-13T08:08:46;101421.13;;;19.91;82.17
46464;BME280;32161;48.148;-1.554;2023-07-13T08:11:14;101417.81;;;19.94;80.47
46464;BME280;32161;48.148;-1.554;2023-07-13T08:13:43;101420.28;;;20.06;79.43
46464;BME280;32161;48.148;-1.554;2023-07-13T08:16:10;101420.84;;;20.13;79.66
46464;BME280;32161;48.148;-1.554;2023-07-13T08:18:38;101419.47;;;20.15;79.21
46464;BME280;32161;48.148;-1.554;2023-07-13T08:21:07;101420.25;;;20.31;78.37
46464;BME280;32161;48.148;-1.554;2023-07-13T08:23:36;101426.59;;;20.37;79.11
46464;BME280;32161;48.148;-1.554;2023-07-13T08:26:05;101431.81;;;20.48;79.32
46464;BME280;32161;48.148;-1.554;2023-07-13T08:28:34;101417.47;;;20.57;79.18
46464;BME280;32161;48.148;-1.554;2023-07-13T08:31:04;101420.75;;;20.69;78.51
46464;BME280;32161;48.148;-1.554;2023-07-13T08:33:35;101422.91;;;20.82;78.00
46464;BME280;32161;48.148;-1.554;2023-07-13T08:36:04;101414.00;;;20.95;75.94
46464;BME280;32161;48.148;-1.554;2023-07-13T08:38:32;101404.31;;;21.03;77.02
46464;BME280;32161;48.148;-1.554;2023-07-13T08:41:03;101404.81;;;21.10;72.91
46464;BME280;32161;48.148;-1.554;2023-07-13T08:43:37;101412.50;;;21.18;73.80
46464;BME280;32161;48.148;-1.554;2023-07-13T08:46:12;101406.38;;;21.27;74.33
46464;BME280;32161;48.148;-1.554;2023-07-13T08:48:44;101407.75;;;21.34;73.84
46464;BME280;32161;48.148;-1.554;2023-07-13T08:51:30;101414.28;;;21.49;73.20
46464;BME280;32161;48.148;-1.554;2023-07-13T08:54:03;101413.38;;;21.58;71.76
46464;BME280;32161;48.148;-1.554;2023-07-13T08:56:32;101412.81;;;21.61;71.90
46464;BME280;32161;48.148;-1.554;2023-07-13T08:59:05;101413.34;;;21.63;72.37
46464;BME280;32161;48.148;-1.554;2023-07-13T09:01:58;101412.72;;;21.72;72.41
46464;BME280;32161;48.148;-1.554;2023-07-13T09:04:36;101403.75;;;21.85;69.83
46464;BME280;32161;48.148;-1.554;2023-07-13T09:07:14;101402.88;;;21.89;70.24
46464;BME280;32161;48.148;-1.554;2023-07-13T09:09:57;101405.38;;;21.91;69.36
46464;BME280;32161;48.148;-1.554;2023-07-13T09:12:40;101404.78;;;21.94;69.35
46464;BME280;32161;48.148;-1.554;2023-07-13T09:15:26;101412.69;;;22.06;69.64
46464;BME280;32161;48.148;-1.554;2023-07-13T09:18:03;101415.13;;;22.12;67.00
46464;BME280;32161;48.148;-1.554;2023-07-13T09:20:35;101406.28;;;22.15;66.19
46464;BME280;32161;48.148;-1.554;2023-07-13T09:23:11;101400.16;;;22.18;66.83
46464;BME280;32161;48.148;-1.554;2023-07-13T09:25:41;101400.03;;;22.29;67.26
46464;BME280;32161;48.148;-1.554;2023-07-13T09:28:15;101405.13;;;22.46;65.78
46464;BME280;32161;48.148;-1.554;2023-07-13T09:30:51;101394.97;;;22.60;65.02
46464;BME280;32161;48.148;-1.554;2023-07-13T09:33:21;101400.34;;;22.75;66.09
46464;BME280;32161;48.148;-1.554;2023-07-13T09:35:49;101400.75;;;22.87;62.02
46464;BME280;32161;48.148;-1.554;2023-07-13T09:38:19;101397.88;;;22.98;62.62
46464;BME280;32161;48.148;-1.554;2023-07-13T09:41:08;101401.69;;;23.02;62.58
46464;BME280;32161;48.148;-1.554;2023-07-13T09:44:07;101399.81;;;22.97;61.58
46464;BME280;32161;48.148;-1.554;2023-07-13T09:46:38;101398.63;;;23.03;61.66
46464;BME280;32161;48.148;-1.554;2023-07-13T09:49:10;101400.59;;;23.22;58.94
46464;BME280;32161;48.148;-1.554;2023-07-13T09:51:38;101399.06;;;23.48;58.51
46464;BME280;32161;48.148;-1.554;2023-07-13T09:54:09;101407.94;;;23.50;56.29
46464;BME280;32161;48.148;-1.554;2023-07-13T09:56:44;101408.69;;;23.37;56.91
46464;BME280;32161;48.148;-1.554;2023-07-13T09:59:19;101413.72;;;23.35;56.61
46464;BME280;32161;48.148;-1.554;2023-07-13T10:01:47;101412.56;;;23.17;57.45
46464;BME280;32161;48.148;-1.554;2023-07-13T10:04:19;101407.25;;;23.21;55.65
46464;BME280;32161;48.148;-1.554;2023-07-13T10:06:47;101406.50;;;23.15;57.26
46464;BME280;32161;48.148;-1.554;2023-07-13T10:09:16;101405.69;;;23.14;57.91
46464;BME280;32161;48.148;-1.554;2023-07-13T10:11:45;101411.06;;;23.25;58.78
46464;BME280;32161;48.148;-1.554;2023-07-13T10:14:16;101414.53;;;23.35;58.20
46464;BME280;32161;48.148;-1.554;2023-07-13T10:16:45;101405.97;;;23.51;55.98
46464;BME280;32161;48.148;-1.554;2023-07-13T10:19:17;101412.28;;;23.56;55.95
46464;BME280;32161;48.148;-1.554;2023-07-13T10:21:54;101409.94;;;23.63;55.18
46464;BME280;32161;48.148;-1.554;2023-07-13T10:24:24;101411.06;;;23.62;55.57
46464;BME280;32161;48.148;-1.554;2023-07-13T10:26:58;101407.63;;;23.71;56.33
46464;BME280;32161;48.148;-1.554;2023-07-13T10:29:32;101410.69;;;23.88;56.70
46464;BME280;32161;48.148;-1.554;2023-07-13T10:32:04;101408.47;;;24.04;56.14
46464;BME280;32161;48.148;-1.554;2023-07-13T10:34:37;101402.63;;;24.19;56.71
46464;BME280;32161;48.148;-1.554;2023-07-13T10:37:07;101401.94;;;24.27;54.74
46464;BME280;32161;48.148;-1.554;2023-07-13T10:39:38;101403.69;;;24.37;55.81
46464;BME280;32161;48.148;-1.554;2023-07-13T10:42:11;101404.03;;;24.63;52.60
46464;BME280;32161;48.148;-1.554;2023-07-13T10:44:41;101415.06;;;24.54;51.91
46464;BME280;32161;48.148;-1.554;2023-07-13T10:47:13;101407.25;;;24.56;50.41
46464;BME280;32161;48.148;-1.554;2023-07-13T10:49:44;101408.47;;;24.64;50.34
46464;BME280;32161;48.148;-1.554;2023-07-13T10:52:41;101400.63;;;24.66;50.11
46464;BME280;32161;48.148;-1.554;2023-07-13T10:55:34;101404.84;;;24.64;51.01
46464;BME280;32161;48.148;-1.554;2023-07-13T10:58:11;101403.41;;;24.66;50.92
46464;BME280;32161;48.148;-1.554;2023-07-13T11:00:47;101402.28;;;24.81;49.89
46464;BME280;32161;48.148;-1.554;2023-07-13T11:03:20;101407.44;;;24.74;50.71
46464;BME280;32161;48.148;-1.554;2023-07-13T11:05:51;101406.50;;;24.65;51.09
46464;BME280;32161;48.148;-1.554;2023-07-13T11:08:35;101404.34;;;24.62;51.09
46464;BME280;32161;48.148;-1.554;2023-07-13T11:11:38;101409.06;;;24.75;50.69
46464;BME280;32161;48.148;-1.554;2023-07-13T11:14:28;101408.97;;;24.80;51.31
46464;BME280;32161;48.148;-1.554;2023-07-13T11:16:57;101403.31;;;24.85;52.01
46464;BME280;32161;48.148;-1.554;2023-07-13T11:19:41;101397.53;;;24.81;50.71
46464;BME280;32161;48.148;-1.554;2023-07-13T11:22:21;101400.19;;;24.87;51.58
46464;BME280;32161;48.148;-1.554;2023-07-13T11:24:58;101391.22;;;25.03;50.67
46464;BME280;32161;48.148;-1.554;2023-07-13T11:27:46;101397.28;;;25.05;49.71
46464;BME280;32161;48.148;-1.554;2023-07-13T11:30:36;101397.94;;;24.89;50.47
46464;BME280;32161;48.148;-1.554;2023-07-13T11:33:15;101400.00;;;24.97;49.79
46464;BME280;32161;48.148;-1.554;2023-07-13T11:35:53;101398.75;;;24.89;49.84
46464;BME280;32161;48.148;-1.554;2023-07-13T11:38:34;101403.66;;;25.06;50.28
46464;BME280;32161;48.148;-1.554;2023-07-13T11:41:06;101393.19;;;25.03;50.31
46464;BME280;32161;48.148;-1.554;2023-07-13T11:43:34;101392.44;;;25.25;49.49
46464;BME280;32161;48.148;-1.554;2023-07-13T11:46:19;101398.91;;;25.34;50.23
46464;BME280;32161;48.148;-1.554;2023-07-13T11:48:49;101390.56;;;25.34;50.38
46464;BME280;32161;48.148;-1.554;2023-07-13T11:51:22;101396.91;;;25.48;48.97
46464;BME280;32161;48.148;-1.554;2023-07-13T11:53:54;101397.16;;;25.61;47.02
46464;BME280;32161;48.148;-1.554;2023-07-13T11:56:24;101396.16;;;25.56;47.83
46464;BME280;32161;48.148;-1.554;2023-07-13T11:58:56;101400.56;;;25.57;47.88
46464;BME280;32161;48.148;-1.554;2023-07-13T12:01:27;101393.72;;;25.41;47.94
46464;BME280;32161;48.148;-1.554;2023-07-13T12:03:59;101386.50;;;25.40;47.83
46464;BME280;32161;48.148;-1.554;2023-07-13T12:06:30;101397.88;;;25.30;48.88
46464;BME280;32161;48.148;-1.554;2023-07-13T12:09:00;101404.91;;;25.14;49.14
46464;BME280;32161;48.148;-1.554;2023-07-13T12:11:30;101394.84;;;24.90;49.31
46464;BME280;32161;48.148;-1.554;2023-07-13T12:13:58;101390.34;;;24.80;49.82
46464;BME280;32161;48.148;-1.554;2023-07-13T12:16:30;101393.00;;;24.85;50.55
46464;BME280;32161;48.148;-1.554;2023-07-13T12:19:00;101382.59;;;24.91;50.86
46464;BME280;32161;48.148;-1.554;2023-07-13T12:21:33;101393.63;;;25.10;49.96
46464;BME280;32161;48.148;-1.554;2023-07-13T12:24:04;101385.97;;;25.16;50.02
46464;BME280;32161;48.148;-1.554;2023-07-13T12:26:32;101390.19;;;25.13;49.51
46464;BME280;32161;48.148;-1.554;2023-07-13T12:29:01;101388.56;;;25.12;50.91
46464;BME280;32161;48.148;-1.554;2023-07-13T12:31:35;101382.38;;;25.15;50.23
46464;BME280;32161;48.148;-1.554;2023-07-13T12:34:11;101387.50;;;25.22;49.71
46464;BME280;32161;48.148;-1.554;2023-07-13T12:36:45;101381.22;;;25.16;49.99
46464;BME280;32161;48.148;-1.554;2023-07-13T12:39:20;101376.69;;;25.06;49.67
46464;BME280;32161;48.148;-1.554;2023-07-13T12:41:49;101371.97;;;24.93;50.95
46464;BME280;32161;48.148;-1.554;2023-07-13T12:44:22;101368.03;;;24.94;51.41
46464;BME280;32161;48.148;-1.554;2023-07-13T12:46:59;101370.72;;;25.13;51.95
46464;BME280;32161;48.148;-1.554;2023-07-13T12:49:33;101367.19;;;25.21;51.39
46464;BME280;32161;48.148;-1.554;2023-07-13T12:52:04;101366.47;;;25.29;51.20
46464;BME280;32161;48.148;-1.554;2023-07-13T12:54:33;101368.16;;;25.39;50.86
46464;BME280;32161;48.148;-1.554;2023-07-13T12:57:02;101370.38;;;25.51;50.52
46464;BME280;32161;48.148;-1.554;2023-07-13T12:59:31;101374.19;;;25.55;50.89